Time;durP1;ratioP1;P1;durP2;ratioP2;P2;SDS_P1;SDS_P2;PMS_P1;PMS_P2;Temp;Humidity;BMP_temperature;BMP_pressure;BME280_temperature;BME280_humidity;BME280_pressure;Samples;Min_cycle;Max_cycle;Signal;HPM_P1;HPM_P2
2022/01/05 00:00:15;;;;;;;8.95;4.65;;;;;;;11.35;57.87;100118.75;4976707;28;20596;-80
2022/01/05 00:02:41;;;;;;;6.40;4.22;;;;;;;11.34;57.79;100115.31;4975624;28;20188;-83
2022/01/05 00:05:08;;;;;;;9.93;5.38;;;;;;;11.43;57.80;100125.38;4977776;28;20579;-81
2022/01/05 00:07:33;;;;;;;8.13;5.55;;;;;;;11.43;57.29;100127.94;4978036;28;20188;-79
2022/01/05 00:09:59;;;;;;;8.48;5.22;;;;;;;11.40;57.74;100108.09;4976191;28;20229;-80
2022/01/05 00:12:25;;;;;;;11.98;5.65;;;;;;;11.56;57.59;100118.78;4975601;28;20661;-81
2022/01/05 00:14:50;;;;;;;9.02;6.15;;;;;;;11.55;56.82;100121.19;4974978;28;20658;-81
2022/01/05 00:17:16;;;;;;;9.30;5.50;;;;;;;11.41;56.77;100094.47;4974625;28;20189;-80
2022/01/05 00:19:43;;;;;;;7.15;4.38;;;;;;;11.57;56.73;100129.91;4974495;28;20186;-80
2022/01/05 00:22:09;;;;;;;7.60;4.68;;;;;;;11.48;56.81;100108.69;4974157;28;20201;-81
2022/01/05 00:24:36;;;;;;;9.38;4.97;;;;;;;11.57;56.52;100128.25;4973740;28;20658;-81
2022/01/05 00:27:03;;;;;;;8.65;5.13;;;;;;;11.55;56.76;100126.34;4973638;28;20185;-81
2022/01/05 00:29:28;;;;;;;13.10;5.35;;;;;;;11.33;56.46;100085.28;4973483;28;20174;-83
2022/01/05 00:31:54;;;;;;;10.82;5.47;;;;;;;11.56;56.28;100120.44;4973352;28;20277;-81
2022/01/05 00:34:19;;;;;;;8.00;5.40;;;;;;;11.63;56.29;100122.69;4956568;28;20177;-80
2022/01/05 00:36:45;;;;;;;8.38;5.65;;;;;;;11.66;56.39;100128.06;4973710;28;20209;-81
2022/01/05 00:39:10;;;;;;;10.13;5.85;;;;;;;11.76;56.71;100119.41;4973950;28;20206;-80
2022/01/05 00:41:36;;;;;;;8.75;5.57;;;;;;;11.81;56.19;100123.25;4973867;28;20265;-81
2022/01/05 00:44:01;;;;;;;9.75;5.97;;;;;;;11.83;55.98;100118.22;4956566;28;20268;-81
2022/01/05 00:46:27;;;;;;;8.68;6.05;;;;;;;11.68;55.74;100084.56;4974060;28;20249;-81
2022/01/05 00:48:52;;;;;;;10.15;5.43;;;;;;;11.62;55.46;100067.03;4973249;28;20174;-82
2022/01/05 00:51:18;;;;;;;9.30;4.63;;;;;;;11.71;55.71;100095.06;4973761;28;20174;-80
2022/01/05 00:53:44;;;;;;;8.52;5.00;;;;;;;11.68;56.01;100098.31;4978848;28;20182;-80
2022/01/05 00:56:09;;;;;;;10.30;5.22;;;;;;;11.61;55.76;100090.00;4965392;28;20184;-85
2022/01/05 00:58:35;;;;;;;8.00;5.00;;;;;;;11.55;56.02;100099.00;4981509;28;20184;-82
2022/01/05 01:01:00;;;;;;;7.28;4.63;;;;;;;11.49;55.67;100095.94;4976767;28;20217;-80
2022/01/05 01:03:28;;;;;;;8.02;5.75;;;;;;;11.50;55.99;100104.56;4979718;28;20218;-80
2022/01/05 01:05:56;;;;;;;9.13;5.03;;;;;;;11.31;55.81;100080.03;4980552;28;20185;-82
2022/01/05 01:08:22;;;;;;;9.15;5.38;;;;;;;11.31;56.08;100084.28;4976115;28;20209;-80
2022/01/05 01:10:49;;;;;;;9.25;4.75;;;;;;;11.21;56.10;100082.63;4972670;28;20232;-80
2022/01/05 01:13:17;;;;;;;8.95;5.00;;;;;;;11.45;55.91;100100.75;4972507;28;20174;-81
2022/01/05 01:15:50;;;;;;;7.70;4.55;;;;;;;11.47;56.32;100101.78;4972645;28;20182;-79
2022/01/05 01:18:17;;;;;;;8.93;4.10;;;;;;;10.99;56.05;100035.56;4972586;28;20173;-80
2022/01/05 01:20:42;;;;;;;6.78;3.97;;;;;;;11.18;56.30;100074.69;4974896;28;20202;-81
2022/01/05 01:23:08;;;;;;;8.23;4.20;;;;;;;11.48;56.27;100103.53;4957764;28;20189;-81
2022/01/05 01:25:34;;;;;;;8.68;5.47;;;;;;;11.31;55.60;100056.97;4972443;28;20223;-81
2022/01/05 01:28:00;;;;;;;9.15;5.22;;;;;;;11.54;56.00;100111.72;4972754;28;20269;-80
2022/01/05 01:30:25;;;;;;;7.55;4.68;;;;;;;11.58;55.82;100100.91;4972154;28;20268;-80
2022/01/05 01:32:51;;;;;;;8.38;4.68;;;;;;;11.59;55.63;100099.22;4972214;28;20178;-81
2022/01/05 01:35:18;;;;;;;9.88;5.18;;;;;;;11.46;55.13;100077.75;4972821;28;20351;-81
2022/01/05 01:37:43;;;;;;;11.20;4.57;;;;;;;11.52;55.21;100077.34;4972607;28;20284;-80
2022/01/05 01:40:09;;;;;;;8.27;4.95;;;;;;;11.66;55.36;100101.53;4972373;28;20265;-80
2022/01/05 01:42:35;;;;;;;8.15;5.53;;;;;;;11.30;55.29;100050.03;4972211;28;20209;-82
2022/01/05 01:45:03;;;;;;;9.75;4.90;;;;;;;11.35;55.57;100047.84;4972202;28;20178;-81
2022/01/05 01:47:29;;;;;;;9.75;4.60;;;;;;;11.57;55.68;100091.44;4972683;28;20184;-80
2022/01/05 01:49:54;;;;;;;6.60;4.68;;;;;;;11.46;55.59;100082.88;4975534;28;20273;-80
2022/01/05 01:52:20;;;;;;;8.65;4.55;;;;;;;11.40;55.30;100077.31;4976075;28;20265;-81
2022/01/05 01:54:46;;;;;;;8.23;4.90;;;;;;;11.45;56.22;100095.59;4976267;28;20233;-81
2022/01/05 01:57:12;;;;;;;7.75;4.03;;;;;;;11.24;56.42;100058.91;4976140;28;20261;-82
2022/01/05 01:59:38;;;;;;;6.70;4.15;;;;;;;11.40;55.64;100085.00;4976375;28;20205;-81
2022/01/05 02:02:07;;;;;;;5.88;4.20;;;;;;;11.36;56.36;100087.19;4976503;28;20228;-81
2022/01/05 02:04:35;;;;;;;8.43;4.70;;;;;;;11.40;56.25;100086.66;4975810;28;20208;-81
2022/01/05 02:07:01;;;;;;;7.60;4.03;;;;;;;11.33;56.11;100078.47;4958436;28;20178;-79
2022/01/05 02:09:27;;;;;;;7.78;4.05;;;;;;;11.26;56.11;100067.63;4975814;28;20725;-80
2022/01/05 02:11:53;;;;;;;6.38;4.28;;;;;;;11.29;56.63;100075.56;4975739;28;20189;-81
2022/01/05 02:14:18;;;;;;;9.13;4.45;;;;;;;11.34;56.06;100076.81;4958876;28;20181;-81
2022/01/05 02:16:45;;;;;;;7.05;4.20;;;;;;;11.34;56.23;100076.81;4975461;28;20185;-82
2022/01/05 02:19:11;;;;;;;6.70;4.40;;;;;;;11.30;56.66;100074.78;4975985;28;20222;-80
2022/01/05 02:21:38;;;;;;;7.82;4.57;;;;;;;11.32;56.52;100069.00;4975399;28;20744;-82
2022/01/05 02:24:06;;;;;;;8.80;4.38;;;;;;;11.35;56.51;100068.34;4976099;28;20257;-80
2022/01/05 02:26:33;;;;;;;7.10;4.40;;;;;;;11.33;56.08;100068.22;4975817;28;20237;-81
2022/01/05 02:28:59;;;;;;;7.95;4.15;;;;;;;11.46;56.12;100064.03;4975810;28;20567;-81
2022/01/05 02:31:25;;;;;;;8.52;4.68;;;;;;;11.53;55.98;100074.03;4975405;28;20174;-81
2022/01/05 02:33:53;;;;;;;7.13;4.25;;;;;;;11.04;55.56;99983.91;4975779;28;20178;-82
2022/01/05 02:36:20;;;;;;;5.78;4.13;;;;;;;11.61;55.54;100070.34;4957910;28;20293;-80
2022/01/05 02:38:48;;;;;;;5.20;3.97;;;;;;;11.47;55.91;100061.59;4975425;28;20549;-82
2022/01/05 02:41:13;;;;;;;5.25;4.25;;;;;;;11.62;55.16;100063.56;4975393;28;20692;-83
2022/01/05 02:43:40;;;;;;;10.23;4.28;;;;;;;11.65;55.05;100077.53;4976082;28;20261;-82
2022/01/05 02:46:11;;;;;;;12.27;4.38;;;;;;;11.54;55.16;100066.44;4975808;28;20261;-80
2022/01/05 02:48:37;;;;;;;5.03;4.00;;;;;;;11.38;55.46;100040.38;4975648;28;20174;-82
2022/01/05 02:51:03;;;;;;;6.43;4.07;;;;;;;11.40;55.22;100037.91;4975652;28;20182;-81
2022/01/05 02:53:28;;;;;;;5.85;3.97;;;;;;;11.55;55.28;100072.44;4958159;28;20182;-82
2022/01/05 02:55:54;;;;;;;6.32;4.40;;;;;;;11.57;55.11;100070.91;4975311;28;20536;-80
2022/01/05 02:58:20;;;;;;;8.63;4.57;;;;;;;11.49;55.18;100044.63;4975648;28;20245;-81
2022/01/05 03:00:45;;;;;;;7.72;4.07;;;;;;;11.68;54.71;100072.66;4973843;28;20202;-81
2022/01/05 03:03:11;;;;;;;5.45;4.10;;;;;;;11.55;54.21;100051.91;4975086;28;20178;-81
2022/01/05 03:05:37;;;;;;;7.18;4.20;;;;;;;11.45;54.43;100031.47;4975206;28;20182;-82
2022/01/05 03:08:03;;;;;;;8.00;4.03;;;;;;;11.58;54.19;100057.28;4974701;28;20233;-80
2022/01/05 03:10:29;;;;;;;11.80;4.88;;;;;;;11.65;54.37;100058.66;4974375;28;20270;-81
2022/01/05 03:12:54;;;;;;;8.15;4.30;;;;;;;11.67;54.28;100068.25;4975062;28;20185;-82
2022/01/05 03:15:20;;;;;;;6.80;4.57;;;;;;;11.70;54.58;100060.81;4974688;28;20174;-81
2022/01/05 03:17:45;;;;;;;6.13;4.25;;;;;;;11.53;54.55;100033.88;4974731;28;20241;-81
2022/01/05 03:20:13;;;;;;;6.80;4.53;;;;;;;11.58;54.76;100062.44;4974827;28;20632;-82
2022/01/05 03:22:40;;;;;;;7.75;4.50;;;;;;;11.29;54.90;100032.84;4957620;28;20178;-81
2022/01/05 03:25:08;;;;;;;8.82;4.75;;;;;;;11.47;55.20;100063.28;4974677;28;20198;-80
2022/01/05 03:27:34;;;;;;;9.65;5.30;;;;;;;11.40;55.09;100064.47;4974996;28;20192;-81
2022/01/05 03:30:02;;;;;;;7.63;4.72;;;;;;;11.37;55.24;100061.69;4973932;28;20261;-82
2022/01/05 03:32:36;;;;;;;9.07;4.80;;;;;;;11.38;55.35;100066.03;4974523;28;20217;-82
2022/01/05 03:35:01;;;;;;;10.18;5.75;;;;;;;11.29;55.47;100055.03;4974440;28;20174;-81
2022/01/05 03:37:28;;;;;;;8.68;4.78;;;;;;;11.35;55.71;100058.09;4974397;28;20216;-80
2022/01/05 03:39:54;;;;;;;9.45;4.70;;;;;;;11.24;55.90;100031.59;4974562;28;20194;-81
2022/01/05 03:42:19;;;;;;;7.18;3.95;;;;;;;10.99;56.06;99976.63;4973930;28;20830;-80
2022/01/05 03:44:45;;;;;;;6.65;4.63;;;;;;;11.53;55.65;100063.75;4956859;28;20583;-81
2022/01/05 03:47:10;;;;;;;9.05;4.53;;;;;;;11.32;55.44;100022.84;4973879;28;20566;-80
2022/01/05 03:49:36;;;;;;;7.75;4.57;;;;;;;11.49;55.32;100044.63;4973773;28;20186;-80
2022/01/05 03:52:03;;;;;;;10.32;4.70;;;;;;;11.44;56.04;100043.41;4974375;28;20202;-80
2022/01/05 03:54:28;;;;;;;7.97;4.43;;;;;;;11.32;55.59;100038.22;4974076;28;20652;-81
2022/01/05 03:56:53;;;;;;;8.07;4.65;;;;;;;11.26;55.90;100047.13;4974034;28;20201;-81
2022/01/05 03:59:19;;;;;;;6.45;4.55;;;;;;;11.14;56.38;100054.72;4973935;28;20182;-82
2022/01/05 04:01:45;;;;;;;10.00;4.88;;;;;;;11.00;56.94;100029.69;4974365;28;20601;-80
2022/01/05 04:04:10;;;;;;;8.80;4.93;;;;;;;10.71;57.27;100002.63;4974440;28;20182;-81
2022/01/05 04:06:36;;;;;;;10.90;4.70;;;;;;;10.85;57.15;100044.75;4974337;28;20227;-82
2022/01/05 04:09:01;;;;;;;6.28;4.53;;;;;;;10.73;57.35;100034.41;4973795;28;20269;-81
2022/01/05 04:11:27;;;;;;;8.23;4.50;;;;;;;10.82;57.68;100054.75;4972966;28;20732;-82
2022/01/05 04:13:52;;;;;;;6.57;4.25;;;;;;;10.80;57.11;100058.84;4973563;28;20189;-83
2022/01/05 04:16:18;;;;;;;9.38;4.35;;;;;;;10.77;58.04;100051.81;4973839;28;20174;-82
2022/01/05 04:18:43;;;;;;;7.90;4.78;;;;;;;10.74;57.85;100053.22;4956504;28;20182;-80
2022/01/05 04:21:09;;;;;;;10.93;5.22;;;;;;;10.59;57.87;100030.75;4976805;28;20269;-82
2022/01/05 04:23:34;;;;;;;7.75;4.93;;;;;;;10.54;57.40;100019.22;4962355;28;20281;-81
2022/01/05 04:26:00;;;;;;;8.32;4.35;;;;;;;10.74;57.36;100046.44;4973841;28;20229;-82
2022/01/05 04:28:25;;;;;;;8.90;4.70;;;;;;;10.77;57.49;100048.34;4973588;28;20721;-82
2022/01/05 04:30:51;;;;;;;9.40;4.68;;;;;;;10.78;56.63;100040.81;4973635;28;20237;-82
2022/01/05 04:33:16;;;;;;;11.15;4.75;;;;;;;10.80;56.91;100043.47;4973369;28;20206;-80
2022/01/05 04:35:42;;;;;;;5.75;4.50;;;;;;;10.89;56.75;100038.19;4973460;28;20237;-81
2022/01/05 04:38:07;;;;;;;10.48;5.47;;;;;;;10.90;56.55;100029.72;4974800;28;20182;-80
2022/01/05 04:40:33;;;;;;;7.60;4.75;;;;;;;11.03;55.71;100047.88;4975379;28;20246;-79
2022/01/05 04:42:58;;;;;;;9.65;5.28;;;;;;;10.99;56.36;100041.59;4976877;28;20186;-81
2022/01/05 04:45:24;;;;;;;8.50;4.47;;;;;;;11.08;55.24;100044.00;4975137;28;20178;-79
2022/01/05 04:47:49;;;;;;;15.60;6.38;;;;;;;10.82;55.29;100000.94;4988609;28;20165;-80
2022/01/05 04:50:15;;;;;;;10.20;7.07;;;;;;;10.96;55.52;100036.22;4998029;28;20170;-79
2022/01/05 04:52:41;;;;;;;14.95;7.13;;;;;;;10.97;56.20;100048.28;4981285;28;20193;-79
2022/01/05 04:55:08;;;;;;;9.35;6.15;;;;;;;11.09;55.28;100048.38;4995567;28;20208;-79
2022/01/05 04:57:33;;;;;;;11.18;6.22;;;;;;;11.16;54.84;100050.63;4995285;28;20182;-80
2022/01/05 04:59:59;;;;;;;9.05;5.53;;;;;;;11.23;54.94;100052.00;4996683;28;20233;-77
2022/01/05 05:02:25;;;;;;;9.43;5.20;;;;;;;11.19;55.29;100050.88;4997164;28;20201;-79
2022/01/05 05:04:50;;;;;;;9.20;4.97;;;;;;;11.19;55.33;100048.31;4996562;28;20192;-76
2022/01/05 05:07:16;;;;;;;12.88;5.30;;;;;;;11.21;54.84;100054.44;4997359;28;20225;-79
2022/01/05 05:09:42;;;;;;;10.82;5.82;;;;;;;11.18;55.62;100053.28;4979774;28;20202;-79
2022/01/05 05:12:08;;;;;;;9.45;6.07;;;;;;;11.08;54.80;100032.06;4996804;28;20171;-80
2022/01/05 05:14:33;;;;;;;14.57;5.65;;;;;;;11.02;54.65;100015.31;4995802;28;20182;-78
2022/01/05 05:16:59;;;;;;;9.88;5.20;;;;;;;11.31;54.56;100056.06;4993826;28;20188;-77
2022/01/05 05:19:24;;;;;;;7.68;5.40;;;;;;;10.98;54.66;99991.09;4994011;28;20237;-81
2022/01/05 05:21:50;;;;;;;11.73;4.88;;;;;;;11.35;54.00;100042.69;4992915;28;20202;-78
2022/01/05 05:24:15;;;;;;;17.70;6.45;;;;;;;11.23;54.23;100022.13;4976439;28;20192;-78
2022/01/05 05:26:41;;;;;;;10.32;5.68;;;;;;;11.39;54.36;100054.09;4998684;28;20709;-77
2022/01/05 05:29:07;;;;;;;15.43;6.55;;;;;;;11.41;53.98;100053.44;4999073;28;20186;-81
2022/01/05 05:31:33;;;;;;;11.85;5.47;;;;;;;11.33;53.77;100016.91;5000895;28;20194;-77
2022/01/05 05:33:58;;;;;;;12.38;6.30;;;;;;;10.99;53.84;99972.38;4998899;28;20192;-80
2022/01/05 05:36:24;;;;;;;14.07;6.88;;;;;;;11.41;54.15;100049.97;4991505;28;20208;-82
2022/01/05 05:38:49;;;;;;;16.02;7.13;;;;;;;11.38;53.81;100054.88;4977118;28;20192;-81
2022/01/05 05:41:15;;;;;;;11.90;6.45;;;;;;;11.36;53.60;100035.91;4999623;28;20269;-80
2022/01/05 05:43:41;;;;;;;13.20;6.43;;;;;;;11.43;54.21;100050.97;4986685;28;20174;-82
2022/01/05 05:46:07;;;;;;;15.52;6.57;;;;;;;11.23;53.80;100024.69;4983263;28;20182;-80
2022/01/05 05:48:33;;;;;;;8.82;5.60;;;;;;;11.35;53.81;100047.84;4965010;28;20264;-83
2022/01/05 05:50:58;;;;;;;10.70;6.43;;;;;;;11.29;54.20;100045.69;4982327;28;20687;-81
2022/01/05 05:53:24;;;;;;;9.80;6.25;;;;;;;11.30;54.87;100047.47;4985149;28;20181;-77
2022/01/05 05:55:50;;;;;;;15.27;7.07;;;;;;;11.36;55.21;100056.41;4978544;28;20181;-79
2022/01/05 05:58:15;;;;;;;11.38;6.50;;;;;;;11.42;55.51;100055.22;4978260;28;20180;-77
2022/01/05 06:00:41;;;;;;;18.55;6.00;;;;;;;11.50;55.07;100053.25;4977939;28;20198;-77
2022/01/05 06:03:06;;;;;;;11.45;6.43;;;;;;;11.55;54.35;100054.50;4982549;28;20216;-81
2022/01/05 06:05:32;;;;;;;12.95;6.10;;;;;;;11.49;54.48;100054.00;4981037;28;20890;-77
2022/01/05 06:07:57;;;;;;;14.80;5.97;;;;;;;11.34;54.41;100051.19;4981952;28;20190;-76
2022/01/05 06:10:23;;;;;;;17.10;6.95;;;;;;;11.47;54.25;100074.44;4981078;28;20281;-78
2022/01/05 06:12:48;;;;;;;13.07;7.43;;;;;;;11.49;55.40;100067.72;4981544;28;20189;-79
2022/01/05 06:15:14;;;;;;;12.70;6.13;;;;;;;11.45;54.06;100063.16;4981829;28;20182;-81
2022/01/05 06:17:40;;;;;;;8.98;5.72;;;;;;;11.40;54.65;100068.69;4982837;28;20189;-79
2022/01/05 06:20:07;;;;;;;16.92;6.20;;;;;;;11.30;54.48;100059.38;4983905;28;20277;-79
2022/01/05 06:22:33;;;;;;;10.10;5.85;;;;;;;11.20;54.16;100041.50;4988346;28;20233;-80
2022/01/05 06:24:59;;;;;;;15.55;6.45;;;;;;;11.33;54.71;100057.94;4984408;28;20574;-79
2022/01/05 06:27:24;;;;;;;11.40;5.78;;;;;;;11.40;54.61;100073.81;4961210;28;20182;-81
2022/01/05 06:29:50;;;;;;;12.40;6.28;;;;;;;11.37;54.76;100076.16;4977132;28;20204;-82
2022/01/05 06:32:16;;;;;;;15.93;7.70;;;;;;;11.16;54.48;100052.31;4976967;28;20209;-81
2022/01/05 06:34:41;;;;;;;12.02;7.10;;;;;;;11.23;54.99;100068.28;4976322;28;20661;-80
2022/01/05 06:37:07;;;;;;;18.58;7.97;;;;;;;11.28;54.83;100066.09;4976399;28;20594;-83
2022/01/05 06:39:33;;;;;;;16.77;8.25;;;;;;;11.35;55.38;100076.03;4976779;28;20653;-81
2022/01/05 06:41:58;;;;;;;12.68;7.15;;;;;;;11.36;54.73;100070.13;4975792;28;20202;-82
2022/01/05 06:44:24;;;;;;;15.40;7.70;;;;;;;11.30;54.93;100072.22;4976095;28;20193;-80
2022/01/05 06:46:49;;;;;;;18.13;7.53;;;;;;;11.48;55.04;100088.16;4975205;28;20178;-79
2022/01/05 06:49:15;;;;;;;14.45;6.78;;;;;;;11.31;54.38;100064.66;4975540;28;20189;-78
2022/01/05 06:51:40;;;;;;;11.48;6.60;;;;;;;11.39;54.40;100074.59;4975164;28;20475;-79
2022/01/05 06:54:06;;;;;;;15.68;8.07;;;;;;;11.54;54.65;100086.97;4974842;28;20666;-77
2022/01/05 06:56:31;;;;;;;25.45;9.02;;;;;;;11.50;54.47;100084.94;4974563;28;20677;-77
2022/01/05 06:58:57;;;;;;;19.35;9.75;;;;;;;11.47;54.00;100064.19;4957686;28;20186;-77
2022/01/05 07:01:22;;;;;;;23.17;10.98;;;;;;;11.66;54.29;100089.59;4974858;28;20206;-79
2022/01/05 07:03:48;;;;;;;19.05;9.73;;;;;;;11.75;54.09;100099.66;4974852;28;20210;-78
2022/01/05 07:06:14;;;;;;;24.05;9.07;;;;;;;11.89;54.19;100106.78;4974905;28;20173;-78
2022/01/05 07:08:40;;;;;;;22.48;9.40;;;;;;;12.11;53.57;100109.28;4974972;28;20631;-78
2022/01/05 07:11:05;;;;;;;23.58;11.45;;;;;;;12.34;53.69;100113.63;4974419;28;20240;-77
2022/01/05 07:13:31;;;;;;;43.90;17.10;;;;;;;12.46;53.20;100111.03;4974393;28;20174;-78
2022/01/05 07:15:57;;;;;;;39.40;16.60;;;;;;;12.45;52.79;100110.16;4974560;28;20178;-78
2022/01/05 07:18:22;;;;;;;35.05;15.18;;;;;;;12.41;53.07;100112.41;4974447;28;20650;-78
2022/01/05 07:20:48;;;;;;;31.48;14.30;;;;;;;12.19;53.65;100082.53;4973949;28;20225;-78
2022/01/05 07:23:14;;;;;;;36.88;15.63;;;;;;;12.40;53.26;100113.19;4974475;28;20189;-77
2022/01/05 07:25:39;;;;;;;23.73;12.82;;;;;;;12.42;53.47;100127.03;4973940;28;20575;-76
2022/01/05 07:28:05;;;;;;;24.27;11.95;;;;;;;11.92;53.80;100091.59;4974706;28;20182;-76
2022/01/05 07:30:30;;;;;;;22.48;13.40;;;;;;;11.82;54.58;100109.63;4974462;28;20368;-76
2022/01/05 07:32:56;;;;;;;21.65;11.88;;;;;;;11.82;55.19;100137.84;4974466;28;20238;-78
2022/01/05 07:35:21;;;;;;;24.30;12.55;;;;;;;11.65;55.56;100115.09;4975082;28;20194;-76
2022/01/05 07:37:47;;;;;;;16.63;10.23;;;;;;;11.75;55.36;100109.94;4975100;28;20201;-77
2022/01/05 07:40:13;;;;;;;23.63;10.90;;;;;;;11.72;55.30;100109.69;4975485;28;20177;-78
2022/01/05 07:42:39;;;;;;;24.17;12.90;;;;;;;11.71;55.17;100105.31;4973574;28;20652;-78
2022/01/05 07:45:06;;;;;;;27.58;11.43;;;;;;;11.81;55.89;100133.50;4973910;28;20201;-78
2022/01/05 07:47:32;;;;;;;25.48;11.52;;;;;;;11.89;55.22;100135.00;4973381;28;20181;-79
2022/01/05 07:49:58;;;;;;;24.48;14.18;;;;;;;11.94;55.37;100132.81;4974430;28;20178;-77
2022/01/05 07:52:23;;;;;;;29.60;15.18;;;;;;;11.85;55.31;100107.31;4975079;28;20316;-77
2022/01/05 07:54:51;;;;;;;26.00;14.48;;;;;;;11.76;55.36;100088.63;4974769;28;20180;-77
2022/01/05 07:57:16;;;;;;;27.85;15.27;;;;;;;12.07;55.58;100134.66;4976337;28;20185;-76
2022/01/05 07:59:42;;;;;;;30.40;16.65;;;;;;;12.11;55.60;100132.41;4975616;28;20177;-78
2022/01/05 08:02:07;;;;;;;38.92;18.95;;;;;;;12.16;55.73;100118.25;4974744;28;20330;-77
2022/01/05 08:04:33;;;;;;;46.60;22.05;;;;;;;12.24;55.22;100122.31;4974007;28;20566;-78
2022/01/05 08:06:58;;;;;;;46.03;25.33;;;;;;;12.35;54.83;100115.41;4973494;28;20682;-78
2022/01/05 08:09:25;;;;;;;50.60;26.13;;;;;;;12.28;54.66;100076.31;4973845;28;20269;-78
2022/01/05 08:11:52;;;;;;;53.92;23.30;;;;;;;12.67;54.59;100116.88;4956965;28;20182;-77
2022/01/05 08:14:17;;;;;;;42.67;20.00;;;;;;;12.89;54.22;100101.34;4973438;28;20196;-77
2022/01/05 08:16:43;;;;;;;29.13;16.67;;;;;;;13.12;53.26;100111.63;4973406;28;20607;-78
2022/01/05 08:19:08;;;;;;;35.45;17.90;;;;;;;13.10;53.33;100105.47;4972976;28;20560;-77
2022/01/05 08:21:34;;;;;;;35.85;18.48;;;;;;;12.97;53.03;100082.25;4973035;28;20213;-79
2022/01/05 08:23:59;;;;;;;35.38;17.65;;;;;;;13.27;52.66;100118.69;4973571;28;20166;-79
2022/01/05 08:26:25;;;;;;;36.08;18.98;;;;;;;13.46;51.99;100110.59;4973292;28;20229;-78
2022/01/05 08:28:50;;;;;;;42.00;18.88;;;;;;;13.65;52.28;100113.69;4972917;28;20174;-78
2022/01/05 08:31:16;;;;;;;42.30;19.67;;;;;;;13.70;51.21;100078.84;4973161;28;20185;-79
2022/01/05 08:33:42;;;;;;;44.00;19.27;;;;;;;13.86;51.06;100093.66;4972659;28;20177;-78
2022/01/05 08:36:08;;;;;;;36.10;19.42;;;;;;;14.13;50.54;100110.09;4973267;28;20193;-78
2022/01/05 08:38:35;;;;;;;45.05;20.63;;;;;;;14.13;50.82;100093.75;4972966;28;20676;-77
2022/01/05 08:41:00;;;;;;;45.65;19.05;;;;;;;14.33;49.77;100098.59;4972757;28;20205;-77
2022/01/05 08:43:26;;;;;;;37.28;18.55;;;;;;;14.20;50.04;100045.31;4973187;28;20174;-77
2022/01/05 08:45:51;;;;;;;34.38;18.65;;;;;;;14.79;50.01;100106.78;4972564;28;20185;-79
2022/01/05 08:48:17;;;;;;;38.03;18.35;;;;;;;15.03;48.68;100107.47;4974705;28;20181;-78
2022/01/05 08:50:43;;;;;;;38.28;16.52;;;;;;;14.87;48.12;100035.06;4957461;28;20694;-79
2022/01/05 08:53:10;;;;;;;37.10;19.52;;;;;;;15.14;46.98;100030.75;4975587;28;20181;-78
2022/01/05 08:55:40;;;;;;;28.70;14.40;;;;;;;15.26;47.27;100036.66;4975525;28;20188;-79
2022/01/05 08:58:07;;;;;;;27.27;14.50;;;;;;;15.69;46.29;100086.72;4974076;28;20660;-77
2022/01/05 09:00:32;;;;;;;32.88;14.40;;;;;;;15.80;46.31;100095.13;4974383;28;20177;-78
2022/01/05 09:02:59;;;;;;;32.10;13.60;;;;;;;15.93;46.28;100089.00;4974502;28;20181;-80
2022/01/05 09:05:25;;;;;;;29.65;13.60;;;;;;;15.97;46.64;100083.22;4974446;28;20184;-78
2022/01/05 09:07:51;;;;;;;29.17;13.43;;;;;;;16.01;46.24;100090.38;4973653;28;20265;-78
2022/01/05 09:10:17;;;;;;;21.92;11.90;;;;;;;16.14;45.65;100081.66;4972929;28;20256;-79
2022/01/05 09:12:43;;;;;;;20.35;10.90;;;;;;;16.26;45.20;100077.22;4972342;28;20245;-79
2022/01/05 09:15:09;;;;;;;19.13;11.32;;;;;;;16.29;44.69;100048.03;4972739;28;20178;-78
2022/01/05 09:17:34;;;;;;;27.63;11.50;;;;;;;16.18;45.29;100031.91;4972370;28;20209;-78
2022/01/05 09:20:00;;;;;;;29.38;12.32;;;;;;;16.36;45.30;100053.69;4972743;28;20169;-77
2022/01/05 09:22:25;;;;;;;21.55;11.80;;;;;;;16.46;45.19;100067.13;4972557;28;20753;-78
2022/01/05 09:24:52;;;;;;;25.08;12.48;;;;;;;16.37;45.37;100049.38;4972476;28;20178;-78
2022/01/05 09:27:18;;;;;;;24.35;11.98;;;;;;;16.27;45.53;100045.38;4973210;28;20178;-77
2022/01/05 09:29:44;;;;;;;18.88;10.00;;;;;;;16.46;45.40;100064.56;4972608;28;20229;-76
2022/01/05 09:32:09;;;;;;;18.63;9.35;;;;;;;16.26;45.06;100019.44;4971920;28;20174;-76
2022/01/05 09:34:36;;;;;;;20.27;8.00;;;;;;;16.57;44.34;100063.44;4972123;28;20182;-77
2022/01/05 09:37:10;;;;;;;15.98;8.95;;;;;;;16.62;44.64;100067.22;4971954;28;20197;-79
2022/01/05 09:42:22;;;;;;;20.52;8.93;;;;;;;16.74;43.96;100031.69;4932559;28;20334;-77
2022/01/05 09:44:51;;;;;;;22.67;8.88;;;;;;;17.03;43.32;100058.31;4954883;28;20170;-80
2022/01/05 09:47:29;;;;;;;15.73;7.97;;;;;;;17.09;42.96;100062.13;4972518;28;20178;-80
2022/01/05 09:49:58;;;;;;;20.92;8.35;;;;;;;17.06;43.27;100061.97;4972446;28;20186;-77
2022/01/05 09:52:25;;;;;;;15.65;7.55;;;;;;;17.10;43.12;100057.84;4972211;28;20178;-78
2022/01/05 09:54:52;;;;;;;13.63;6.78;;;;;;;17.20;42.45;100049.78;4972242;28;20261;-78
2022/01/05 09:57:20;;;;;;;17.02;7.75;;;;;;;17.22;42.34;100053.34;4971962;28;20209;-79
2022/01/05 09:59:47;;;;;;;17.77;6.72;;;;;;;16.94;42.08;99985.34;4971855;28;20253;-79
2022/01/05 10:02:14;;;;;;;13.77;7.85;;;;;;;17.33;42.44;100048.75;4971619;28;20261;-77
2022/01/05 10:04:41;;;;;;;11.13;6.55;;;;;;;17.22;41.49;99988.63;4971663;28;20198;-78
2022/01/05 10:07:09;;;;;;;13.57;7.20;;;;;;;17.44;41.65;99997.53;4972022;28;20179;-77
2022/01/05 10:09:37;;;;;;;13.05;6.93;;;;;;;17.74;41.33;100032.81;4972670;28;20695;-77
2022/01/05 10:12:03;;;;;;;17.95;7.57;;;;;;;17.62;41.20;99985.53;4976169;28;20189;-78
2022/01/05 10:14:30;;;;;;;15.88;7.55;;;;;;;18.05;41.14;100031.84;4977075;28;20577;-77
2022/01/05 10:17:08;;;;;;;13.10;6.75;;;;;;;18.34;40.13;100024.63;4975544;28;20685;-79
2022/01/05 10:19:36;;;;;;;18.45;7.20;;;;;;;18.44;40.36;100016.47;4974843;28;20607;-80
2022/01/05 10:22:02;;;;;;;15.45;6.15;;;;;;;18.54;39.58;100010.06;4974875;28;20751;-78
2022/01/05 10:24:48;;;;;;;10.27;6.22;;;;;;;18.61;39.13;100004.34;4974944;28;20173;-78
2022/01/05 10:27:19;;;;;;;11.38;6.68;;;;;;;18.62;39.43;100008.72;4976020;28;20264;-76
2022/01/05 10:29:58;;;;;;;13.68;8.20;;;;;;;18.67;39.58;99992.56;4957311;28;20665;-77
2022/01/05 10:32:25;;;;;;;12.23;7.03;;;;;;;18.88;39.29;100005.69;4974846;28;20163;-76
2022/01/05 10:35:06;;;;;;;16.98;9.68;;;;;;;19.09;39.33;100007.50;4974702;28;20197;-77
2022/01/05 10:37:32;;;;;;;16.05;8.40;;;;;;;18.44;39.26;99866.03;4975118;28;20326;-78
2022/01/05 10:40:31;;;;;;;14.82;7.10;;;;;;;19.14;38.71;99941.97;4974348;28;20186;-77
2022/01/05 10:42:56;;;;;;;11.98;7.32;;;;;;;19.18;38.97;99932.63;4974342;28;20249;-79
2022/01/05 10:45:37;;;;;;;13.05;7.40;;;;;;;19.81;38.09;99998.69;4974719;28;20212;-78
2022/01/05 10:48:08;;;;;;;9.98;5.18;;;;;;;19.88;37.84;99992.03;4974397;28;20249;-77
2022/01/05 10:50:34;;;;;;;10.30;7.65;;;;;;;19.67;37.92;99934.81;4974450;28;20174;-77
2022/01/05 10:53:01;;;;;;;11.23;6.32;;;;;;;20.15;37.62;99994.00;4974658;28;20178;-77
2022/01/05 10:55:29;;;;;;;8.77;6.30;;;;;;;20.34;37.04;99991.31;4974603;28;20223;-79
2022/01/05 10:57:57;;;;;;;11.60;6.47;;;;;;;20.46;37.01;99993.53;4974234;28;20269;-77
2022/01/05 11:00:53;;;;;;;10.82;6.35;;;;;;;20.64;37.48;99996.03;4974238;28;20171;-77
2022/01/05 11:03:35;;;;;;;36.60;20.25;;;;;;;21.03;36.30;99988.00;4974193;28;20181;-77
2022/01/05 11:06:02;;;;;;;13.13;7.18;;;;;;;21.12;36.19;99988.34;4956642;28;20568;-77
2022/01/05 11:08:29;;;;;;;14.73;8.07;;;;;;;20.60;35.82;99874.44;4974034;28;20265;-78
2022/01/05 11:10:55;;;;;;;21.98;11.35;;;;;;;21.32;35.78;99996.91;4973944;28;20238;-78
2022/01/05 11:13:20;;;;;;;11.10;6.40;;;;;;;21.15;35.49;99937.28;4974337;28;20225;-77
2022/01/05 11:15:46;;;;;;;10.57;6.45;;;;;;;21.20;36.22;99940.03;4974046;28;20181;-77
2022/01/05 11:18:20;;;;;;;12.45;5.88;;;;;;;21.43;35.54;99975.69;4974027;28;20205;-77